ETNH

Hohn Airport

Germany
METAR ETNH 152020Z AUTO 33004KT 6000 // ////// 18/11 Q1017 ///
Observed Flight Rules
Jul-15 @ 20:20 UTC (31 minutes ago)
Wind Visibility
330° at 4 knots 6,003 meters
Temperatures Readings
Current 18°C / 64°F
Dewpoint 11°C / 52°F
Humidity 64%
Altimeter 30.03" Hg
Pressure 1017 hPa
Elevation 17
METAR ETNH 152020Z AUTO 33004KT 6000 // ////// 18/11 Q1017 ///
Observed Flight Rules
Jul-15 @ 20:20 UTC
(31 minutes ago)
Wind Visibility
330° at 4 knots 6,003 meters
Temperature Dewpoint
18°C / 64°F 11°C / 52°F
Humidity Altimeter Pressure
64% 30.03" Hg 1017 hPa